Terminal Aerodrome Forecast
Issued by NWS

Home | Current Version | Previous Version | Graphics & Text | Print | Product List | Glossary On
Versions: 1 2 3 4 5 6 7 8 9 10 11 12 13 14 15 16 17 18 19 20 21
587
FTUS43 KUNR 211720
TAFGCC
TAF
KGCC 211720Z 2118/2218 17020G30KT P6SM SCT020
     FM212100 17020G30KT P6SM VCTS BKN050CB
      TEMPO 2122/2202 -TSRA
     FM220300 19010KT P6SM OVC030=

USA.gov is the U.S. government's official web portal to all federal, state and local government web resources and services.